sensor_id;sensor_type;location;lat;lon;timestamp;P1;durP1;ratioP1;P2;durP2;ratioP2
26512;SDS011;14186;53.822;10.152;2022-08-01T00:03:35;24.67;;;17.13;;
26512;SDS011;14186;53.822;10.152;2022-08-01T00:08:36;24.20;;;16.15;;
26512;SDS011;14186;53.822;10.152;2022-08-01T00:13:40;26.83;;;18.08;;
26512;SDS011;14186;53.822;10.152;2022-08-01T00:18:40;22.23;;;15.73;;
26512;SDS011;14186;53.822;10.152;2022-08-01T00:23:41;20.27;;;15.10;;
26512;SDS011;14186;53.822;10.152;2022-08-01T00:28:42;19.10;;;13.80;;
26512;SDS011;14186;53.822;10.152;2022-08-01T00:33:43;21.00;;;12.70;;
26512;SDS011;14186;53.822;10.152;2022-08-01T00:38:43;17.67;;;12.00;;
26512;SDS011;14186;53.822;10.152;2022-08-01T00:43:45;16.42;;;11.88;;
26512;SDS011;14186;53.822;10.152;2022-08-01T00:48:45;18.20;;;11.05;;
26512;SDS011;14186;53.822;10.152;2022-08-01T00:53:45;15.47;;;8.87;;
26512;SDS011;14186;53.822;10.152;2022-08-01T00:58:47;12.17;;;8.03;;
26512;SDS011;14186;53.822;10.152;2022-08-01T01:03:47;11.90;;;8.00;;
26512;SDS011;14186;53.822;10.152;2022-08-01T01:08:49;11.80;;;8.30;;
26512;SDS011;14186;53.822;10.152;2022-08-01T01:13:56;13.52;;;8.27;;
26512;SDS011;14186;53.822;10.152;2022-08-01T01:19:00;13.32;;;7.93;;
26512;SDS011;14186;53.822;10.152;2022-08-01T01:24:03;10.50;;;8.07;;
26512;SDS011;14186;53.822;10.152;2022-08-01T01:29:13;14.65;;;8.98;;
26512;SDS011;14186;53.822;10.152;2022-08-01T01:34:15;11.32;;;8.15;;
26512;SDS011;14186;53.822;10.152;2022-08-01T01:39:17;12.32;;;9.45;;
26512;SDS011;14186;53.822;10.152;2022-08-01T01:44:19;12.95;;;9.77;;
26512;SDS011;14186;53.822;10.152;2022-08-01T01:49:19;18.08;;;9.82;;
26512;SDS011;14186;53.822;10.152;2022-08-01T01:54:21;16.70;;;11.10;;
26512;SDS011;14186;53.822;10.152;2022-08-01T01:59:24;16.88;;;11.10;;
26512;SDS011;14186;53.822;10.152;2022-08-01T02:04:26;15.82;;;11.65;;
26512;SDS011;14186;53.822;10.152;2022-08-01T02:09:27;18.30;;;12.32;;
26512;SDS011;14186;53.822;10.152;2022-08-01T02:14:29;19.58;;;13.07;;
26512;SDS011;14186;53.822;10.152;2022-08-01T02:19:30;19.80;;;13.55;;
26512;SDS011;14186;53.822;10.152;2022-08-01T02:24:32;21.88;;;12.88;;
26512;SDS011;14186;53.822;10.152;2022-08-01T02:29:39;22.13;;;14.00;;
26512;SDS011;14186;53.822;10.152;2022-08-01T02:34:40;19.13;;;14.55;;
26512;SDS011;14186;53.822;10.152;2022-08-01T02:39:41;23.42;;;14.80;;
26512;SDS011;14186;53.822;10.152;2022-08-01T02:44:43;22.23;;;14.75;;
26512;SDS011;14186;53.822;10.152;2022-08-01T02:49:45;23.83;;;15.25;;
26512;SDS011;14186;53.822;10.152;2022-08-01T02:54:45;22.55;;;12.60;;
26512;SDS011;14186;53.822;10.152;2022-08-01T02:59:49;23.05;;;12.77;;
26512;SDS011;14186;53.822;10.152;2022-08-01T03:04:50;17.30;;;13.02;;
26512;SDS011;14186;53.822;10.152;2022-08-01T03:09:51;21.17;;;12.70;;
26512;SDS011;14186;53.822;10.152;2022-08-01T03:14:53;16.63;;;12.32;;
26512;SDS011;14186;53.822;10.152;2022-08-01T03:19:56;17.20;;;12.40;;
26512;SDS011;14186;53.822;10.152;2022-08-01T03:24:57;21.23;;;12.50;;
26512;SDS011;14186;53.822;10.152;2022-08-01T03:30:00;17.27;;;11.60;;
26512;SDS011;14186;53.822;10.152;2022-08-01T03:35:02;12.75;;;9.98;;
26512;SDS011;14186;53.822;10.152;2022-08-01T03:40:05;16.13;;;9.77;;
26512;SDS011;14186;53.822;10.152;2022-08-01T03:45:08;15.68;;;9.35;;
26512;SDS011;14186;53.822;10.152;2022-08-01T03:50:11;15.30;;;9.70;;
26512;SDS011;14186;53.822;10.152;2022-08-01T03:55:13;16.08;;;10.80;;
26512;SDS011;14186;53.822;10.152;2022-08-01T04:00:16;16.70;;;10.45;;
26512;SDS011;14186;53.822;10.152;2022-08-01T04:05:16;15.23;;;10.15;;
26512;SDS011;14186;53.822;10.152;2022-08-01T04:10:17;15.82;;;10.68;;
26512;SDS011;14186;53.822;10.152;2022-08-01T04:15:18;14.90;;;9.25;;
26512;SDS011;14186;53.822;10.152;2022-08-01T04:20:19;13.25;;;9.20;;
26512;SDS011;14186;53.822;10.152;2022-08-01T04:25:21;14.95;;;8.75;;
26512;SDS011;14186;53.822;10.152;2022-08-01T04:30:26;11.27;;;8.15;;
26512;SDS011;14186;53.822;10.152;2022-08-01T04:35:27;13.30;;;8.20;;
26512;SDS011;14186;53.822;10.152;2022-08-01T04:40:28;11.35;;;7.90;;
26512;SDS011;14186;53.822;10.152;2022-08-01T04:45:29;13.00;;;7.65;;
26512;SDS011;14186;53.822;10.152;2022-08-01T04:50:30;9.98;;;6.57;;
26512;SDS011;14186;53.822;10.152;2022-08-01T04:55:30;11.10;;;5.88;;
26512;SDS011;14186;53.822;10.152;2022-08-01T05:00:32;8.73;;;5.97;;
26512;SDS011;14186;53.822;10.152;2022-08-01T05:05:32;6.95;;;4.63;;
26512;SDS011;14186;53.822;10.152;2022-08-01T05:10:32;4.97;;;3.85;;
26512;SDS011;14186;53.822;10.152;2022-08-01T05:15:35;4.78;;;3.72;;
26512;SDS011;14186;53.822;10.152;2022-08-01T05:20:35;6.70;;;3.67;;
26512;SDS011;14186;53.822;10.152;2022-08-01T05:25:36;4.78;;;3.42;;
26512;SDS011;14186;53.822;10.152;2022-08-01T05:30:38;6.28;;;3.67;;
26512;SDS011;14186;53.822;10.152;2022-08-01T05:35:38;5.20;;;3.83;;
26512;SDS011;14186;53.822;10.152;2022-08-01T05:40:38;6.78;;;3.80;;
26512;SDS011;14186;53.822;10.152;2022-08-01T05:45:40;9.40;;;3.03;;
26512;SDS011;14186;53.822;10.152;2022-08-01T05:50:40;5.55;;;2.40;;
26512;SDS011;14186;53.822;10.152;2022-08-01T05:55:41;6.57;;;2.53;;
26512;SDS011;14186;53.822;10.152;2022-08-01T06:00:42;12.38;;;3.38;;
26512;SDS011;14186;53.822;10.152;2022-08-01T06:05:42;6.38;;;2.28;;
26512;SDS011;14186;53.822;10.152;2022-08-01T06:10:43;8.98;;;2.30;;
26512;SDS011;14186;53.822;10.152;2022-08-01T06:15:44;8.20;;;2.67;;
26512;SDS011;14186;53.822;10.152;2022-08-01T06:20:44;7.43;;;2.00;;
26512;SDS011;14186;53.822;10.152;2022-08-01T06:25:45;6.20;;;2.47;;
26512;SDS011;14186;53.822;10.152;2022-08-01T06:30:46;7.32;;;2.55;;
26512;SDS011;14186;53.822;10.152;2022-08-01T06:35:47;7.03;;;2.78;;
26512;SDS011;14186;53.822;10.152;2022-08-01T06:40:47;8.77;;;2.60;;
26512;SDS011;14186;53.822;10.152;2022-08-01T06:45:48;13.33;;;3.53;;
26512;SDS011;14186;53.822;10.152;2022-08-01T06:50:50;7.05;;;2.80;;
26512;SDS011;14186;53.822;10.152;2022-08-01T06:55:50;5.82;;;2.88;;
26512;SDS011;14186;53.822;10.152;2022-08-01T07:00:52;8.65;;;3.00;;
26512;SDS011;14186;53.822;10.152;2022-08-01T07:05:52;8.02;;;2.67;;
26512;SDS011;14186;53.822;10.152;2022-08-01T07:10:52;5.38;;;2.00;;
26512;SDS011;14186;53.822;10.152;2022-08-01T07:15:54;7.05;;;2.72;;
26512;SDS011;14186;53.822;10.152;2022-08-01T07:20:54;3.03;;;1.75;;
26512;SDS011;14186;53.822;10.152;2022-08-01T07:25:54;5.35;;;1.50;;
26512;SDS011;14186;53.822;10.152;2022-08-01T07:30:56;4.80;;;1.40;;
26512;SDS011;14186;53.822;10.152;2022-08-01T07:35:56;3.15;;;1.40;;
26512;SDS011;14186;53.822;10.152;2022-08-01T07:40:56;3.47;;;1.30;;
26512;SDS011;14186;53.822;10.152;2022-08-01T07:45:58;3.33;;;1.65;;
26512;SDS011;14186;53.822;10.152;2022-08-01T07:50:58;5.82;;;1.58;;
26512;SDS011;14186;53.822;10.152;2022-08-01T07:55:58;4.10;;;2.00;;
26512;SDS011;14186;53.822;10.152;2022-08-01T08:01:00;6.03;;;2.10;;
26512;SDS011;14186;53.822;10.152;2022-08-01T08:06:00;3.65;;;2.00;;
26512;SDS011;14186;53.822;10.152;2022-08-01T08:11:00;6.88;;;2.08;;
26512;SDS011;14186;53.822;10.152;2022-08-01T08:16:02;4.90;;;3.10;;
26512;SDS011;14186;53.822;10.152;2022-08-01T08:21:03;5.90;;;2.60;;
26512;SDS011;14186;53.822;10.152;2022-08-01T08:26:03;8.75;;;3.05;;
26512;SDS011;14186;53.822;10.152;2022-08-01T08:31:04;4.80;;;2.53;;
26512;SDS011;14186;53.822;10.152;2022-08-01T08:36:05;7.40;;;2.70;;
26512;SDS011;14186;53.822;10.152;2022-08-01T08:41:05;7.23;;;2.03;;
26512;SDS011;14186;53.822;10.152;2022-08-01T08:46:07;9.23;;;2.33;;
26512;SDS011;14186;53.822;10.152;2022-08-01T08:51:08;5.20;;;2.08;;
26512;SDS011;14186;53.822;10.152;2022-08-01T08:56:09;7.35;;;2.20;;
26512;SDS011;14186;53.822;10.152;2022-08-01T09:01:13;9.73;;;2.75;;
26512;SDS011;14186;53.822;10.152;2022-08-01T09:06:13;5.70;;;1.58;;
26512;SDS011;14186;53.822;10.152;2022-08-01T09:11:13;8.25;;;1.80;;
26512;SDS011;14186;53.822;10.152;2022-08-01T09:16:16;5.68;;;1.80;;
26512;SDS011;14186;53.822;10.152;2022-08-01T09:21:17;6.82;;;2.20;;
26512;SDS011;14186;53.822;10.152;2022-08-01T09:26:19;11.02;;;2.00;;
26512;SDS011;14186;53.822;10.152;2022-08-01T09:31:21;9.52;;;1.88;;
26512;SDS011;14186;53.822;10.152;2022-08-01T09:36:22;7.90;;;1.77;;
26512;SDS011;14186;53.822;10.152;2022-08-01T09:41:28;13.60;;;2.45;;
26512;SDS011;14186;53.822;10.152;2022-08-01T09:46:30;9.75;;;2.92;;
26512;SDS011;14186;53.822;10.152;2022-08-01T09:51:31;13.98;;;2.75;;
26512;SDS011;14186;53.822;10.152;2022-08-01T09:56:37;7.90;;;1.65;;
26512;SDS011;14186;53.822;10.152;2022-08-01T10:01:43;8.55;;;1.70;;
26512;SDS011;14186;53.822;10.152;2022-08-01T10:06:44;6.90;;;2.00;;
26512;SDS011;14186;53.822;10.152;2022-08-01T10:11:44;8.75;;;1.70;;
26512;SDS011;14186;53.822;10.152;2022-08-01T10:16:46;9.18;;;1.92;;
26512;SDS011;14186;53.822;10.152;2022-08-01T10:21:48;9.02;;;1.52;;
26512;SDS011;14186;53.822;10.152;2022-08-01T10:26:49;11.32;;;1.80;;
26512;SDS011;14186;53.822;10.152;2022-08-01T10:31:52;7.05;;;2.45;;
26512;SDS011;14186;53.822;10.152;2022-08-01T10:36:53;9.90;;;1.98;;
26512;SDS011;14186;53.822;10.152;2022-08-01T10:41:54;8.00;;;1.48;;
26512;SDS011;14186;53.822;10.152;2022-08-01T10:46:57;11.00;;;1.95;;
26512;SDS011;14186;53.822;10.152;2022-08-01T10:51:59;9.98;;;1.65;;
26512;SDS011;14186;53.822;10.152;2022-08-01T10:56:59;6.63;;;1.30;;
26512;SDS011;14186;53.822;10.152;2022-08-01T11:02:02;7.60;;;1.63;;
26512;SDS011;14186;53.822;10.152;2022-08-01T11:07:04;7.80;;;1.42;;
26512;SDS011;14186;53.822;10.152;2022-08-01T11:12:06;8.32;;;2.10;;
26512;SDS011;14186;53.822;10.152;2022-08-01T11:22:26;7.30;;;1.15;;
26512;SDS011;14186;53.822;10.152;2022-08-01T11:27:27;8.57;;;1.58;;
26512;SDS011;14186;53.822;10.152;2022-08-01T11:32:28;7.10;;;1.45;;
26512;SDS011;14186;53.822;10.152;2022-08-01T11:37:30;7.47;;;1.27;;
26512;SDS011;14186;53.822;10.152;2022-08-01T11:42:30;6.65;;;1.40;;
26512;SDS011;14186;53.822;10.152;2022-08-01T11:52:49;7.28;;;1.40;;
26512;SDS011;14186;53.822;10.152;2022-08-01T11:57:59;10.52;;;1.42;;
26512;SDS011;14186;53.822;10.152;2022-08-01T12:03:01;7.82;;;1.40;;
26512;SDS011;14186;53.822;10.152;2022-08-01T12:08:03;3.33;;;1.02;;
26512;SDS011;14186;53.822;10.152;2022-08-01T12:13:04;8.90;;;1.48;;
26512;SDS011;14186;53.822;10.152;2022-08-01T12:18:05;6.03;;;1.17;;
26512;SDS011;14186;53.822;10.152;2022-08-01T12:23:08;9.73;;;1.75;;
26512;SDS011;14186;53.822;10.152;2022-08-01T12:28:08;9.07;;;1.55;;
26512;SDS011;14186;53.822;10.152;2022-08-01T12:33:09;7.57;;;1.40;;
26512;SDS011;14186;53.822;10.152;2022-08-01T12:38:14;6.05;;;1.35;;
26512;SDS011;14186;53.822;10.152;2022-08-01T12:43:15;6.30;;;1.52;;
26512;SDS011;14186;53.822;10.152;2022-08-01T12:48:16;6.25;;;1.17;;
26512;SDS011;14186;53.822;10.152;2022-08-01T12:53:18;8.75;;;1.17;;
26512;SDS011;14186;53.822;10.152;2022-08-01T12:58:18;8.45;;;1.48;;
26512;SDS011;14186;53.822;10.152;2022-08-01T13:03:19;8.40;;;1.88;;
26512;SDS011;14186;53.822;10.152;2022-08-01T13:08:23;8.30;;;1.20;;
26512;SDS011;14186;53.822;10.152;2022-08-01T13:13:23;7.68;;;1.33;;
26512;SDS011;14186;53.822;10.152;2022-08-01T13:18:24;7.95;;;1.48;;
26512;SDS011;14186;53.822;10.152;2022-08-01T13:23:26;4.70;;;1.25;;
26512;SDS011;14186;53.822;10.152;2022-08-01T13:28:27;9.43;;;1.10;;
26512;SDS011;14186;53.822;10.152;2022-08-01T13:33:28;5.60;;;1.02;;
26512;SDS011;14186;53.822;10.152;2022-08-01T13:38:41;6.32;;;1.52;;
26512;SDS011;14186;53.822;10.152;2022-08-01T13:43:41;5.57;;;0.93;;
26512;SDS011;14186;53.822;10.152;2022-08-01T13:48:41;4.10;;;1.10;;
26512;SDS011;14186;53.822;10.152;2022-08-01T13:53:43;3.50;;;0.98;;
26512;SDS011;14186;53.822;10.152;2022-08-01T13:58:43;4.80;;;0.98;;
26512;SDS011;14186;53.822;10.152;2022-08-01T14:03:44;5.25;;;1.10;;
26512;SDS011;14186;53.822;10.152;2022-08-01T14:08:45;6.45;;;0.90;;
26512;SDS011;14186;53.822;10.152;2022-08-01T14:13:46;8.25;;;1.23;;
26512;SDS011;14186;53.822;10.152;2022-08-01T14:18:46;4.22;;;1.02;;
26512;SDS011;14186;53.822;10.152;2022-08-01T14:23:48;5.75;;;1.05;;
26512;SDS011;14186;53.822;10.152;2022-08-01T14:28:48;6.00;;;0.90;;
26512;SDS011;14186;53.822;10.152;2022-08-01T14:33:48;9.23;;;1.70;;
26512;SDS011;14186;53.822;10.152;2022-08-01T14:38:50;5.05;;;1.20;;
26512;SDS011;14186;53.822;10.152;2022-08-01T14:43:50;5.00;;;1.00;;
26512;SDS011;14186;53.822;10.152;2022-08-01T14:48:51;5.07;;;1.05;;
26512;SDS011;14186;53.822;10.152;2022-08-01T14:53:53;8.27;;;1.00;;
26512;SDS011;14186;53.822;10.152;2022-08-01T14:58:53;8.75;;;1.17;;
26512;SDS011;14186;53.822;10.152;2022-08-01T15:03:53;3.38;;;1.10;;
26512;SDS011;14186;53.822;10.152;2022-08-01T15:08:55;3.77;;;0.83;;
26512;SDS011;14186;53.822;10.152;2022-08-01T15:13:55;5.00;;;1.50;;
26512;SDS011;14186;53.822;10.152;2022-08-01T15:18:56;6.90;;;1.30;;
26512;SDS011;14186;53.822;10.152;2022-08-01T15:23:58;6.40;;;1.52;;
26512;SDS011;14186;53.822;10.152;2022-08-01T15:28:58;4.05;;;1.25;;
26512;SDS011;14186;53.822;10.152;2022-08-01T15:33:58;8.38;;;1.45;;
26512;SDS011;14186;53.822;10.152;2022-08-01T15:39:00;7.63;;;1.15;;
26512;SDS011;14186;53.822;10.152;2022-08-01T15:44:00;9.82;;;1.52;;
26512;SDS011;14186;53.822;10.152;2022-08-01T15:49:01;9.38;;;2.10;;
26512;SDS011;14186;53.822;10.152;2022-08-01T15:54:03;6.38;;;1.40;;
26512;SDS011;14186;53.822;10.152;2022-08-01T15:59:03;8.88;;;1.38;;
26512;SDS011;14186;53.822;10.152;2022-08-01T16:04:04;8.02;;;1.83;;
26512;SDS011;14186;53.822;10.152;2022-08-01T16:09:06;5.60;;;1.50;;
26512;SDS011;14186;53.822;10.152;2022-08-01T16:14:06;7.68;;;2.53;;
26512;SDS011;14186;53.822;10.152;2022-08-01T16:19:06;6.55;;;1.30;;
26512;SDS011;14186;53.822;10.152;2022-08-01T16:24:08;6.20;;;1.60;;
26512;SDS011;14186;53.822;10.152;2022-08-01T16:29:08;5.22;;;1.70;;
26512;SDS011;14186;53.822;10.152;2022-08-01T16:34:08;9.93;;;1.80;;
26512;SDS011;14186;53.822;10.152;2022-08-01T16:39:10;5.63;;;1.75;;
26512;SDS011;14186;53.822;10.152;2022-08-01T16:44:10;6.68;;;1.40;;
26512;SDS011;14186;53.822;10.152;2022-08-01T16:49:10;6.40;;;1.40;;
26512;SDS011;14186;53.822;10.152;2022-08-01T16:54:12;7.45;;;1.20;;
26512;SDS011;14186;53.822;10.152;2022-08-01T16:59:12;7.22;;;1.48;;
26512;SDS011;14186;53.822;10.152;2022-08-01T17:04:12;4.35;;;0.80;;
26512;SDS011;14186;53.822;10.152;2022-08-01T17:09:14;5.93;;;1.20;;
26512;SDS011;14186;53.822;10.152;2022-08-01T17:14:14;6.93;;;1.38;;
26512;SDS011;14186;53.822;10.152;2022-08-01T17:19:14;6.82;;;1.55;;
26512;SDS011;14186;53.822;10.152;2022-08-01T17:24:16;8.00;;;1.20;;
26512;SDS011;14186;53.822;10.152;2022-08-01T17:29:16;4.97;;;1.00;;
26512;SDS011;14186;53.822;10.152;2022-08-01T17:34:17;17.30;;;3.53;;
26512;SDS011;14186;53.822;10.152;2022-08-01T17:39:18;5.53;;;1.20;;
26512;SDS011;14186;53.822;10.152;2022-08-01T17:44:18;7.43;;;1.20;;
26512;SDS011;14186;53.822;10.152;2022-08-01T17:49:19;8.50;;;1.27;;
26512;SDS011;14186;53.822;10.152;2022-08-01T17:54:20;8.95;;;1.65;;
26512;SDS011;14186;53.822;10.152;2022-08-01T17:59:20;9.90;;;1.33;;
26512;SDS011;14186;53.822;10.152;2022-08-01T18:04:22;9.75;;;1.42;;
26512;SDS011;14186;53.822;10.152;2022-08-01T18:09:23;8.40;;;1.23;;
26512;SDS011;14186;53.822;10.152;2022-08-01T18:14:24;6.65;;;1.00;;
26512;SDS011;14186;53.822;10.152;2022-08-01T18:19:24;4.00;;;1.15;;
26512;SDS011;14186;53.822;10.152;2022-08-01T18:24:26;8.50;;;2.08;;
26512;SDS011;14186;53.822;10.152;2022-08-01T18:29:28;7.40;;;1.67;;
26512;SDS011;14186;53.822;10.152;2022-08-01T18:34:28;6.15;;;1.38;;
26512;SDS011;14186;53.822;10.152;2022-08-01T18:39:30;5.97;;;1.23;;
26512;SDS011;14186;53.822;10.152;2022-08-01T18:44:30;7.18;;;1.10;;
26512;SDS011;14186;53.822;10.152;2022-08-01T18:49:31;13.80;;;1.40;;
26512;SDS011;14186;53.822;10.152;2022-08-01T18:54:43;11.00;;;2.10;;
26512;SDS011;14186;53.822;10.152;2022-08-01T18:59:43;6.82;;;1.13;;
26512;SDS011;14186;53.822;10.152;2022-08-01T19:04:44;9.07;;;1.50;;
26512;SDS011;14186;53.822;10.152;2022-08-01T19:09:45;13.48;;;2.38;;
26512;SDS011;14186;53.822;10.152;2022-08-01T19:14:46;6.85;;;1.20;;
26512;SDS011;14186;53.822;10.152;2022-08-01T19:19:46;7.70;;;1.47;;
26512;SDS011;14186;53.822;10.152;2022-08-01T19:24:48;7.95;;;1.88;;
26512;SDS011;14186;53.822;10.152;2022-08-01T19:29:49;12.50;;;1.50;;
26512;SDS011;14186;53.822;10.152;2022-08-01T19:34:52;7.65;;;1.25;;
26512;SDS011;14186;53.822;10.152;2022-08-01T19:39:57;5.75;;;1.55;;
26512;SDS011;14186;53.822;10.152;2022-08-01T19:44:57;5.72;;;1.65;;
26512;SDS011;14186;53.822;10.152;2022-08-01T19:49:59;6.05;;;1.70;;
26512;SDS011;14186;53.822;10.152;2022-08-01T19:55:02;8.50;;;2.42;;
26512;SDS011;14186;53.822;10.152;2022-08-01T20:00:03;10.43;;;1.85;;
26512;SDS011;14186;53.822;10.152;2022-08-01T20:05:04;9.38;;;2.88;;
26512;SDS011;14186;53.822;10.152;2022-08-01T20:10:06;6.30;;;1.90;;
26512;SDS011;14186;53.822;10.152;2022-08-01T20:15:07;8.95;;;2.17;;
26512;SDS011;14186;53.822;10.152;2022-08-01T20:20:08;12.05;;;1.33;;
26512;SDS011;14186;53.822;10.152;2022-08-01T20:25:10;13.68;;;2.20;;
26512;SDS011;14186;53.822;10.152;2022-08-01T20:30:11;5.63;;;1.27;;
26512;SDS011;14186;53.822;10.152;2022-08-01T20:35:12;7.50;;;2.05;;
26512;SDS011;14186;53.822;10.152;2022-08-01T20:40:15;10.98;;;2.03;;
26512;SDS011;14186;53.822;10.152;2022-08-01T20:45:17;8.98;;;2.03;;
26512;SDS011;14186;53.822;10.152;2022-08-01T20:50:17;9.55;;;2.00;;
26512;SDS011;14186;53.822;10.152;2022-08-01T20:55:21;15.50;;;3.10;;
26512;SDS011;14186;53.822;10.152;2022-08-01T21:00:24;7.28;;;2.45;;
26512;SDS011;14186;53.822;10.152;2022-08-01T21:05:26;11.98;;;2.58;;
26512;SDS011;14186;53.822;10.152;2022-08-01T21:10:30;6.45;;;2.10;;
26512;SDS011;14186;53.822;10.152;2022-08-01T21:15:32;12.23;;;3.05;;
26512;SDS011;14186;53.822;10.152;2022-08-01T21:20:33;12.10;;;2.30;;
26512;SDS011;14186;53.822;10.152;2022-08-01T21:25:35;14.80;;;3.75;;
26512;SDS011;14186;53.822;10.152;2022-08-01T21:30:35;8.93;;;2.28;;
26512;SDS011;14186;53.822;10.152;2022-08-01T21:35:36;8.23;;;1.70;;
26512;SDS011;14186;53.822;10.152;2022-08-01T21:40:37;7.55;;;2.13;;
26512;SDS011;14186;53.822;10.152;2022-08-01T21:45:39;8.55;;;2.17;;
26512;SDS011;14186;53.822;10.152;2022-08-01T21:50:43;8.68;;;2.58;;
26512;SDS011;14186;53.822;10.152;2022-08-01T21:55:48;9.73;;;2.17;;
26512;SDS011;14186;53.822;10.152;2022-08-01T22:00:51;12.15;;;2.75;;
26512;SDS011;14186;53.822;10.152;2022-08-01T22:05:53;6.78;;;2.80;;
26512;SDS011;14186;53.822;10.152;2022-08-01T22:10:59;8.43;;;2.47;;
26512;SDS011;14186;53.822;10.152;2022-08-01T22:16:03;10.35;;;2.17;;
26512;SDS011;14186;53.822;10.152;2022-08-01T22:21:03;5.53;;;2.45;;
26512;SDS011;14186;53.822;10.152;2022-08-01T22:26:06;7.93;;;2.05;;
26512;SDS011;14186;53.822;10.152;2022-08-01T22:31:06;8.13;;;2.25;;
26512;SDS011;14186;53.822;10.152;2022-08-01T22:36:06;7.55;;;2.33;;
26512;SDS011;14186;53.822;10.152;2022-08-01T22:41:09;10.60;;;2.40;;
26512;SDS011;14186;53.822;10.152;2022-08-01T22:46:14;7.90;;;2.50;;
26512;SDS011;14186;53.822;10.152;2022-08-01T22:51:17;4.75;;;2.10;;
26512;SDS011;14186;53.822;10.152;2022-08-01T22:56:22;10.27;;;2.40;;
26512;SDS011;14186;53.822;10.152;2022-08-01T23:01:22;12.02;;;3.05;;
26512;SDS011;14186;53.822;10.152;2022-08-01T23:06:30;11.18;;;2.85;;
26512;SDS011;14186;53.822;10.152;2022-08-01T23:11:35;7.25;;;2.78;;
26512;SDS011;14186;53.822;10.152;2022-08-01T23:16:37;8.75;;;2.83;;
26512;SDS011;14186;53.822;10.152;2022-08-01T23:21:39;10.20;;;2.80;;
26512;SDS011;14186;53.822;10.152;2022-08-01T23:26:40;8.27;;;2.83;;
26512;SDS011;14186;53.822;10.152;2022-08-01T23:31:41;7.70;;;3.17;;
26512;SDS011;14186;53.822;10.152;2022-08-01T23:36:42;12.32;;;3.63;;
26512;SDS011;14186;53.822;10.152;2022-08-01T23:41:43;10.77;;;3.80;;
26512;SDS011;14186;53.822;10.152;2022-08-01T23:46:43;11.65;;;3.50;;
26512;SDS011;14186;53.822;10.152;2022-08-01T23:51:44;9.73;;;3.17;;
26512;SDS011;14186;53.822;10.152;2022-08-01T23:56:46;10.15;;;2.78;;
